createdAt,value
2022-08-26T00:01:54.777Z,7.40
2022-08-26T00:04:23.811Z,8.02
2022-08-26T00:06:51.920Z,7.53
2022-08-26T00:09:20.032Z,8.02
2022-08-26T00:11:47.974Z,8.57
2022-08-26T00:14:16.818Z,8.30
2022-08-26T00:16:47.852Z,8.15
2022-08-26T00:19:19.401Z,7.88
2022-08-26T00:21:49.684Z,7.30
2022-08-26T00:24:17.857Z,7.47
2022-08-26T00:26:45.745Z,8.40
2022-08-26T00:29:14.224Z,7.75
2022-08-26T00:31:42.991Z,7.18
2022-08-26T00:34:13.859Z,8.70
2022-08-26T00:36:43.468Z,8.13
2022-08-26T00:39:11.846Z,7.63
2022-08-26T00:41:41.886Z,8.25
2022-08-26T00:44:11.351Z,7.55
2022-08-26T00:46:46.978Z,7.63
2022-08-26T00:49:17.854Z,7.70
2022-08-26T00:51:50.865Z,7.70
2022-08-26T00:54:20.592Z,7.55
2022-08-26T00:56:54.785Z,8.02
2022-08-26T00:59:23.550Z,7.80
2022-08-26T01:01:52.304Z,6.90
2022-08-26T01:04:23.184Z,7.82
2022-08-26T01:06:54.961Z,8.07
2022-08-26T01:09:24.055Z,7.47
2022-08-26T01:11:55.454Z,8.00
2022-08-26T01:14:24.203Z,8.57
2022-08-26T01:16:52.356Z,8.77
2022-08-26T01:19:24.481Z,8.63
2022-08-26T01:22:00.133Z,8.27
2022-08-26T01:24:31.210Z,7.70
2022-08-26T01:27:02.717Z,7.40
2022-08-26T01:29:31.855Z,8.10
2022-08-26T01:32:00.328Z,8.48
2022-08-26T01:34:30.899Z,8.45
2022-08-26T01:37:03.465Z,7.93
2022-08-26T01:39:36.085Z,8.40
2022-08-26T01:42:06.459Z,8.35
2022-08-26T01:44:45.043Z,8.73
2022-08-26T01:47:14.665Z,9.07
2022-08-26T01:49:44.063Z,7.45
2022-08-26T01:52:15.431Z,7.90
2022-08-26T01:54:46.273Z,8.35
2022-08-26T01:57:20.084Z,7.90
2022-08-26T01:59:48.884Z,8.25
2022-08-26T02:02:16.703Z,7.97
2022-08-26T02:04:48.874Z,8.47
2022-08-26T02:07:19.997Z,8.23
2022-08-26T02:13:38.857Z,7.88
2022-08-26T02:16:08.915Z,8.50
2022-08-26T02:18:39.949Z,7.90
2022-08-26T02:21:08.701Z,7.88
2022-08-26T02:23:36.532Z,7.90
2022-08-26T02:26:10.864Z,7.82
2022-08-26T02:28:42.947Z,8.05
2022-08-26T02:31:10.675Z,8.20
2022-08-26T02:33:38.302Z,8.20
2022-08-26T02:36:12.114Z,8.10
2022-08-26T02:38:41.105Z,8.40
2022-08-26T02:41:11.400Z,8.88
2022-08-26T02:43:40.527Z,7.60
2022-08-26T02:46:08.455Z,8.13
2022-08-26T02:48:36.628Z,8.55
2022-08-26T02:51:05.095Z,8.55
2022-08-26T02:53:35.462Z,8.32
2022-08-26T02:56:03.905Z,8.80
2022-08-26T02:58:31.960Z,8.60
2022-08-26T03:01:01.691Z,8.27
2022-08-26T03:03:32.753Z,8.45
2022-08-26T03:06:00.976Z,8.82
2022-08-26T03:08:28.806Z,8.67
2022-08-26T03:10:58.830Z,8.70
2022-08-26T03:13:29.734Z,8.25
2022-08-26T03:15:57.664Z,8.40
2022-08-26T03:18:28.082Z,8.20
2022-08-26T03:20:55.711Z,7.87
2022-08-26T03:23:23.599Z,7.85
2022-08-26T03:25:52.307Z,8.60
2022-08-26T03:28:20.273Z,7.65
2022-08-26T03:30:48.087Z,8.80
2022-08-26T03:33:16.831Z,8.17
2022-08-26T03:35:47.910Z,8.27
2022-08-26T03:38:20.053Z,8.02
2022-08-26T03:40:48.099Z,8.70
2022-08-26T03:43:17.174Z,9.23
2022-08-26T03:45:46.054Z,8.07
2022-08-26T03:48:14.789Z,8.75
2022-08-26T03:50:43.628Z,8.10
2022-08-26T03:53:13.430Z,8.13
2022-08-26T03:55:42.022Z,10.25
2022-08-26T03:58:11.192Z,12.60
2022-08-26T04:00:39.353Z,10.48
2022-08-26T04:03:09.990Z,9.00
2022-08-26T04:05:39.193Z,8.40
2022-08-26T04:08:07.914Z,8.75
2022-08-26T04:10:38.823Z,7.23
2022-08-26T04:13:06.497Z,8.82
2022-08-26T04:15:34.702Z,8.45
2022-08-26T04:18:02.365Z,7.97
2022-08-26T04:20:31.425Z,8.45
2022-08-26T04:22:59.137Z,8.40
2022-08-26T04:25:26.793Z,9.25
2022-08-26T04:27:56.972Z,8.57
2022-08-26T04:30:25.668Z,8.80
2022-08-26T04:32:53.374Z,9.02
2022-08-26T04:35:25.604Z,7.60
2022-08-26T04:37:54.286Z,7.82
2022-08-26T04:40:22.183Z,8.45
2022-08-26T04:42:50.264Z,8.30
2022-08-26T04:45:22.759Z,8.38
2022-08-26T04:48:16.913Z,8.17
2022-08-26T04:50:45.178Z,8.38
2022-08-26T04:53:17.289Z,8.40
2022-08-26T04:55:45.096Z,8.10
2022-08-26T04:58:16.157Z,8.20
2022-08-26T05:00:46.246Z,8.43
2022-08-26T05:03:14.093Z,8.27
2022-08-26T05:05:43.383Z,7.93
2022-08-26T05:08:11.654Z,8.75
2022-08-26T05:10:43.674Z,8.52
2022-08-26T05:13:15.526Z,8.27
2022-08-26T05:15:45.843Z,8.07
2022-08-26T05:18:15.297Z,8.30
2022-08-26T05:20:45.798Z,7.80
2022-08-26T05:23:15.540Z,7.60
2022-08-26T05:25:45.961Z,7.53
2022-08-26T05:28:16.104Z,8.27
2022-08-26T05:30:46.174Z,7.93
2022-08-26T05:33:14.723Z,7.53
2022-08-26T05:35:43.840Z,8.02
2022-08-26T05:38:14.520Z,7.40
2022-08-26T05:40:44.651Z,7.85
2022-08-26T05:43:15.512Z,7.60
2022-08-26T05:45:47.745Z,7.90
2022-08-26T05:48:18.282Z,8.63
2022-08-26T05:50:47.917Z,7.80
2022-08-26T05:53:18.458Z,7.80
2022-08-26T05:55:48.862Z,8.43
2022-08-26T05:58:20.323Z,9.00
2022-08-26T06:00:58.828Z,8.75
2022-08-26T06:03:28.085Z,8.50
2022-08-26T06:05:56.770Z,8.40
2022-08-26T06:08:25.286Z,9.50
2022-08-26T06:10:55.644Z,9.45
2022-08-26T06:13:27.204Z,8.88
2022-08-26T06:16:00.325Z,8.43
2022-08-26T06:18:32.916Z,8.48
2022-08-26T06:21:14.145Z,9.30
2022-08-26T06:23:59.615Z,9.35
2022-08-26T06:26:29.133Z,9.88
2022-08-26T06:28:57.167Z,8.60
2022-08-26T06:31:27.178Z,8.77
2022-08-26T06:33:55.987Z,9.13
2022-08-26T06:36:26.387Z,9.32
2022-08-26T06:38:56.915Z,8.65
2022-08-26T06:41:24.556Z,8.53
2022-08-26T06:43:53.519Z,8.80
2022-08-26T06:46:23.246Z,7.80
2022-08-26T06:48:55.498Z,9.48
2022-08-26T06:51:25.904Z,12.15
2022-08-26T06:53:55.383Z,11.50
2022-08-26T06:56:25.614Z,11.75
2022-08-26T06:58:54.719Z,15.70
2022-08-26T07:01:25.357Z,13.70
2022-08-26T07:03:57.406Z,18.35
2022-08-26T07:06:26.341Z,17.63
2022-08-26T07:08:56.876Z,16.50
2022-08-26T07:11:24.540Z,21.90
2022-08-26T07:13:53.613Z,21.98
2022-08-26T07:16:22.178Z,27.30
2022-08-26T07:18:52.969Z,24.87
2022-08-26T07:21:23.386Z,19.48
2022-08-26T07:23:52.148Z,17.33
2022-08-26T07:26:22.347Z,12.30
2022-08-26T07:28:54.283Z,10.80
2022-08-26T07:31:24.604Z,10.70
2022-08-26T07:33:52.278Z,8.80
2022-08-26T07:36:23.163Z,9.30
2022-08-26T07:38:51.749Z,10.30
2022-08-26T07:41:22.927Z,9.77
2022-08-26T07:43:51.009Z,9.20
2022-08-26T07:46:20.831Z,8.18
2022-08-26T07:48:56.642Z,9.10
2022-08-26T07:51:26.093Z,9.07
2022-08-26T07:53:55.216Z,9.23
2022-08-26T07:56:23.760Z,8.43
2022-08-26T07:58:53.503Z,8.98
2022-08-26T08:01:23.925Z,9.55
2022-08-26T08:03:53.292Z,10.68
2022-08-26T08:06:22.256Z,10.05
2022-08-26T08:08:51.777Z,9.77
2022-08-26T08:11:21.417Z,10.43
2022-08-26T08:13:50.051Z,8.80
2022-08-26T08:16:24.695Z,8.07
2022-08-26T08:18:52.379Z,9.30
2022-08-26T08:21:22.172Z,8.33
2022-08-26T08:23:54.425Z,9.75
2022-08-26T08:26:23.363Z,11.13
2022-08-26T08:28:52.026Z,11.15
2022-08-26T08:31:38.678Z,9.35
2022-08-26T08:34:09.260Z,8.57
2022-08-26T08:36:37.281Z,8.63
2022-08-26T08:39:07.056Z,8.70
2022-08-26T08:41:49.441Z,8.60
2022-08-26T08:44:22.861Z,8.57
2022-08-26T08:46:56.416Z,7.73
2022-08-26T08:49:26.148Z,7.78
2022-08-26T08:51:57.869Z,8.13
2022-08-26T08:54:29.113Z,7.82
2022-08-26T08:57:04.164Z,7.65
2022-08-26T08:59:35.609Z,7.20
2022-08-26T09:02:15.503Z,7.72
2022-08-26T09:05:06.507Z,7.28
2022-08-26T09:07:39.562Z,7.38
2022-08-26T09:10:25.580Z,7.47
2022-08-26T09:12:54.234Z,7.40
2022-08-26T09:15:30.217Z,6.93
2022-08-26T09:18:07.521Z,6.97
2022-08-26T09:20:47.593Z,6.57
2022-08-26T09:23:17.164Z,7.18
2022-08-26T09:25:51.006Z,6.50
2022-08-26T09:28:21.196Z,7.00
2022-08-26T09:31:02.045Z,8.77
2022-08-26T09:33:34.490Z,9.35
2022-08-26T09:36:18.603Z,5.95
2022-08-26T09:38:46.593Z,5.60
2022-08-26T09:41:26.246Z,5.75
2022-08-26T09:44:16.037Z,6.93
2022-08-26T09:46:48.282Z,6.80
2022-08-26T09:49:25.890Z,6.75
2022-08-26T09:52:16.016Z,6.77
2022-08-26T09:54:46.121Z,6.35
2022-08-26T09:57:19.930Z,8.00
2022-08-26T09:59:49.514Z,7.07
2022-08-26T10:02:25.303Z,7.32
2022-08-26T10:04:55.257Z,6.70
2022-08-26T10:07:45.836Z,7.35
2022-08-26T10:10:20.362Z,7.30
2022-08-26T10:12:56.615Z,6.93
2022-08-26T10:15:27.104Z,6.78
2022-08-26T10:18:02.962Z,6.33
2022-08-26T10:20:37.166Z,5.63
2022-08-26T10:23:08.950Z,5.80
2022-08-26T10:25:44.906Z,7.72
2022-08-26T10:28:33.201Z,6.47
2022-08-26T10:31:06.242Z,5.53
2022-08-26T10:33:34.055Z,4.88
2022-08-26T10:36:07.185Z,5.88
2022-08-26T10:38:42.112Z,7.47
2022-08-26T10:41:16.876Z,4.55
2022-08-26T10:43:52.369Z,4.17
2022-08-26T10:46:27.309Z,4.90
2022-08-26T10:48:59.945Z,4.97
2022-08-26T10:51:32.189Z,5.40
2022-08-26T10:54:06.661Z,5.10
2022-08-26T10:56:44.680Z,4.47
2022-08-26T10:59:22.658Z,4.88
2022-08-26T11:01:58.831Z,4.15
2022-08-26T11:04:47.119Z,4.18
2022-08-26T11:07:43.080Z,4.47
2022-08-26T11:10:31.136Z,4.43
2022-08-26T11:13:01.022Z,4.13
2022-08-26T11:16:11.290Z,4.40
2022-08-26T11:18:46.302Z,4.03
2022-08-26T11:21:50.841Z,4.10
2022-08-26T11:24:44.670Z,5.07
2022-08-26T11:28:07.183Z,4.75
2022-08-26T11:30:56.964Z,4.47
2022-08-26T11:33:59.906Z,4.40
2022-08-26T11:36:57.136Z,4.15
2022-08-26T11:39:30.130Z,4.47
2022-08-26T11:42:01.422Z,4.57
2022-08-26T11:44:38.225Z,4.32
2022-08-26T11:47:11.478Z,4.60
2022-08-26T11:49:40.368Z,4.00
2022-08-26T11:52:16.977Z,4.37
2022-08-26T11:55:00.415Z,3.95
2022-08-26T11:57:28.777Z,4.22
2022-08-26T11:59:56.965Z,4.60
2022-08-26T12:02:27.077Z,4.72
2022-08-26T12:04:56.477Z,4.10
2022-08-26T12:07:28.446Z,4.68
2022-08-26T12:10:00.474Z,4.40
2022-08-26T12:12:34.646Z,4.53
2022-08-26T12:15:13.904Z,4.38
2022-08-26T12:17:43.982Z,4.47
2022-08-26T12:20:29.566Z,3.65
2022-08-26T12:22:59.153Z,4.63
2022-08-26T12:25:28.015Z,4.55
2022-08-26T12:28:06.553Z,4.50
2022-08-26T12:30:34.290Z,4.93
2022-08-26T12:33:19.942Z,4.75
2022-08-26T12:35:56.649Z,3.72
2022-08-26T12:38:26.176Z,6.00
2022-08-26T12:40:54.182Z,5.93
2022-08-26T12:43:39.626Z,5.33
2022-08-26T12:46:08.842Z,6.28
2022-08-26T12:48:39.633Z,7.85
2022-08-26T12:51:10.043Z,9.00
2022-08-26T12:53:44.068Z,5.43
2022-08-26T12:56:27.202Z,4.80
2022-08-26T12:59:07.248Z,8.90
2022-08-26T13:01:40.825Z,2.72
2022-08-26T13:04:33.593Z,2.03
2022-08-26T13:07:15.739Z,4.70
2022-08-26T13:09:43.528Z,3.67
2022-08-26T13:12:13.025Z,4.80
2022-08-26T13:14:40.983Z,5.38
2022-08-26T13:17:08.567Z,5.75
2022-08-26T13:19:37.681Z,6.93
2022-08-26T13:22:06.122Z,4.83
2022-08-26T13:24:38.202Z,5.20
2022-08-26T13:27:07.780Z,5.53
2022-08-26T13:29:36.241Z,4.45
2022-08-26T13:32:05.310Z,5.68
2022-08-26T13:34:33.746Z,5.83
2022-08-26T13:37:03.540Z,6.95
2022-08-26T13:39:31.264Z,7.13
2022-08-26T13:42:00.073Z,6.57
2022-08-26T13:44:27.937Z,7.22
2022-08-26T13:46:55.810Z,6.80
2022-08-26T13:49:23.613Z,6.88
2022-08-26T13:51:51.420Z,6.95
2022-08-26T13:54:20.541Z,7.43
2022-08-26T13:56:48.490Z,8.45
2022-08-26T13:59:16.120Z,6.90
2022-08-26T14:01:43.803Z,6.40
2022-08-26T14:04:11.588Z,5.88
2022-08-26T14:06:39.265Z,5.13
2022-08-26T14:09:07.249Z,4.93
2022-08-26T14:11:50.577Z,4.47
2022-08-26T14:14:21.953Z,4.90
2022-08-26T14:16:58.849Z,5.22
2022-08-26T14:19:28.483Z,4.78
2022-08-26T14:21:56.339Z,5.18
2022-08-26T14:24:24.339Z,4.73
2022-08-26T14:26:53.424Z,4.20
2022-08-26T14:29:21.261Z,4.28
2022-08-26T14:31:49.151Z,4.82
2022-08-26T14:34:16.932Z,5.22
2022-08-26T14:36:44.786Z,4.20
2022-08-26T14:39:14.623Z,4.53
2022-08-26T14:41:54.173Z,4.63
2022-08-26T14:44:27.549Z,5.15
2022-08-26T14:46:55.781Z,4.35
2022-08-26T14:49:25.186Z,4.73
2022-08-26T14:51:53.007Z,4.45
2022-08-26T14:54:21.221Z,4.60
2022-08-26T14:56:51.602Z,4.50
2022-08-26T14:59:22.167Z,4.47
2022-08-26T15:01:51.325Z,4.20
2022-08-26T15:04:19.995Z,4.85
2022-08-26T15:06:48.420Z,4.60
2022-08-26T15:09:16.188Z,4.45
2022-08-26T15:11:44.490Z,4.80
2022-08-26T15:14:19.947Z,5.10
2022-08-26T15:16:48.843Z,4.97
2022-08-26T15:19:18.414Z,5.38
2022-08-26T15:21:47.498Z,5.05
2022-08-26T15:24:17.638Z,4.60
2022-08-26T15:26:46.298Z,3.50
2022-08-26T15:29:14.139Z,4.75
2022-08-26T15:31:41.912Z,4.85
2022-08-26T15:34:15.969Z,4.80
2022-08-26T15:36:46.859Z,4.95
2022-08-26T15:39:16.356Z,4.07
2022-08-26T15:41:44.284Z,5.00
2022-08-26T15:44:13.747Z,4.43
2022-08-26T15:46:42.224Z,4.57
2022-08-26T15:49:16.978Z,5.00
2022-08-26T15:51:50.494Z,5.60
2022-08-26T15:54:21.173Z,5.43
2022-08-26T15:56:52.005Z,6.18
2022-08-26T15:59:22.282Z,5.65
2022-08-26T16:01:50.373Z,6.40
2022-08-26T16:04:18.616Z,6.33
2022-08-26T16:06:50.491Z,6.28
2022-08-26T16:09:18.549Z,5.90
2022-08-26T16:11:46.175Z,6.47
2022-08-26T16:14:13.940Z,6.40
2022-08-26T16:16:42.029Z,5.03
2022-08-26T16:19:10.080Z,6.57
2022-08-26T16:21:38.382Z,5.85
2022-08-26T16:24:08.246Z,5.85
2022-08-26T16:26:38.162Z,5.13
2022-08-26T16:29:08.666Z,6.93
2022-08-26T16:31:37.277Z,14.88
2022-08-26T16:34:05.841Z,9.95
2022-08-26T16:36:33.549Z,8.75
2022-08-26T16:39:01.188Z,8.30
2022-08-26T16:41:32.368Z,6.33
2022-08-26T16:44:00.250Z,6.80
2022-08-26T16:46:29.176Z,8.25
2022-08-26T16:48:57.905Z,7.45
2022-08-26T16:51:28.224Z,6.53
2022-08-26T16:53:57.658Z,6.43
2022-08-26T16:56:34.009Z,7.55
2022-08-26T16:59:05.172Z,7.10
2022-08-26T17:01:33.367Z,6.78
2022-08-26T17:04:01.212Z,5.97
2022-08-26T17:06:29.728Z,6.23
2022-08-26T17:08:57.388Z,6.45
2022-08-26T17:11:25.229Z,6.70
2022-08-26T17:13:53.350Z,6.15
2022-08-26T17:16:26.671Z,6.10
2022-08-26T17:18:56.070Z,5.40
2022-08-26T17:21:23.785Z,6.63
2022-08-26T17:23:51.831Z,6.53
2022-08-26T17:26:19.717Z,5.95
2022-08-26T17:28:47.784Z,5.53
2022-08-26T17:31:15.480Z,6.10
2022-08-26T17:33:47.755Z,6.55
2022-08-26T17:36:18.659Z,5.68
2022-08-26T17:38:47.009Z,8.15
2022-08-26T17:41:17.556Z,7.55
2022-08-26T17:43:45.576Z,6.90
2022-08-26T17:46:13.516Z,6.13
2022-08-26T17:48:41.959Z,6.60
2022-08-26T17:51:13.746Z,6.60
2022-08-26T17:53:41.587Z,6.15
2022-08-26T17:56:10.818Z,6.10
2022-08-26T17:58:39.055Z,6.60
2022-08-26T18:01:07.738Z,5.82
2022-08-26T18:03:35.710Z,6.90
2022-08-26T18:06:04.232Z,6.15
2022-08-26T18:08:33.579Z,6.17
2022-08-26T18:11:01.382Z,6.93
2022-08-26T18:13:29.108Z,7.03
2022-08-26T18:15:56.783Z,6.88
2022-08-26T18:18:24.570Z,6.85
2022-08-26T18:20:56.849Z,6.73
2022-08-26T18:23:31.318Z,6.65
2022-08-26T18:26:00.539Z,6.90
2022-08-26T18:28:28.399Z,6.57
2022-08-26T18:30:57.439Z,5.93
2022-08-26T18:33:25.503Z,6.57
2022-08-26T18:35:53.815Z,5.85
2022-08-26T18:38:21.475Z,6.32
2022-08-26T18:40:50.117Z,6.90
2022-08-26T18:43:19.278Z,6.25
2022-08-26T18:45:47.127Z,6.67
2022-08-26T18:48:15.791Z,6.15
2022-08-26T18:50:47.320Z,6.03
2022-08-26T18:53:15.653Z,5.20
2022-08-26T18:55:43.286Z,4.53
2022-08-26T18:58:11.755Z,4.83
2022-08-26T19:00:40.931Z,4.30
2022-08-26T19:03:18.472Z,4.28
2022-08-26T19:05:46.894Z,4.28
2022-08-26T19:08:14.686Z,3.88
2022-08-26T19:10:42.603Z,3.87
2022-08-26T19:13:10.733Z,3.78
2022-08-26T19:15:40.424Z,4.30
2022-08-26T19:18:10.365Z,3.95
2022-08-26T19:20:43.466Z,3.95
2022-08-26T19:23:30.891Z,3.90
2022-08-26T19:25:59.742Z,4.20
2022-08-26T19:28:27.577Z,4.22
2022-08-26T19:30:55.548Z,3.95
2022-08-26T19:33:24.733Z,4.10
2022-08-26T19:35:52.924Z,4.17
2022-08-26T19:38:20.955Z,3.92
2022-08-26T19:40:48.894Z,4.72
2022-08-26T19:43:16.794Z,4.10
2022-08-26T19:45:44.781Z,3.72
2022-08-26T19:48:12.664Z,3.93
2022-08-26T19:50:42.230Z,4.00
2022-08-26T19:53:10.184Z,4.57
2022-08-26T19:55:38.063Z,4.07
2022-08-26T19:58:06.458Z,4.78
2022-08-26T20:00:35.864Z,4.47
2022-08-26T20:03:03.632Z,3.70
2022-08-26T20:05:31.529Z,4.72
2022-08-26T20:08:00.506Z,4.50
2022-08-26T20:10:28.149Z,5.32
2022-08-26T20:12:56.468Z,5.90
2022-08-26T20:15:24.496Z,5.20
2022-08-26T20:17:56.199Z,4.75
2022-08-26T20:20:41.613Z,5.00
2022-08-26T20:23:10.858Z,4.38
2022-08-26T20:25:39.054Z,4.40
2022-08-26T20:28:06.871Z,4.60
2022-08-26T20:30:34.685Z,5.40
2022-08-26T20:33:02.335Z,4.88
2022-08-26T20:35:30.182Z,5.28
2022-08-26T20:37:57.841Z,4.87
2022-08-26T20:40:27.170Z,4.43
2022-08-26T20:42:55.016Z,4.90
2022-08-26T20:45:22.620Z,5.40
2022-08-26T20:47:50.761Z,5.03
2022-08-26T20:50:18.787Z,4.73
2022-08-26T20:52:46.657Z,4.63
2022-08-26T20:55:14.425Z,4.18
2022-08-26T20:57:43.847Z,4.88
2022-08-26T21:00:13.464Z,5.32
2022-08-26T21:02:42.113Z,5.20
2022-08-26T21:05:10.826Z,5.97
2022-08-26T21:07:38.489Z,5.70
2022-08-26T21:10:06.891Z,5.10
2022-08-26T21:12:35.703Z,5.50
2022-08-26T21:15:05.637Z,5.23
2022-08-26T21:17:33.446Z,4.93
2022-08-26T21:20:01.375Z,5.30
2022-08-26T21:22:30.342Z,4.47
2022-08-26T21:24:58.198Z,4.45
2022-08-26T21:27:26.282Z,5.10
2022-08-26T21:29:54.777Z,5.45
2022-08-26T21:32:23.821Z,6.10
2022-08-26T21:34:55.621Z,5.43
2022-08-26T21:37:23.583Z,4.75
2022-08-26T21:39:54.244Z,4.97
2022-08-26T21:42:22.246Z,4.80
2022-08-26T21:44:52.819Z,5.53
2022-08-26T21:47:20.748Z,5.43
2022-08-26T21:49:49.916Z,5.70
2022-08-26T21:52:17.917Z,4.60
2022-08-26T21:54:49.179Z,4.60
2022-08-26T21:57:17.694Z,4.25
2022-08-26T21:59:45.514Z,4.05
2022-08-26T22:02:13.511Z,4.70
2022-08-26T22:04:45.642Z,4.70
2022-08-26T22:07:19.251Z,4.25
2022-08-26T22:09:47.444Z,4.88
2022-08-26T22:12:16.662Z,4.60
2022-08-26T22:14:45.626Z,4.93
2022-08-26T22:17:13.801Z,4.63
2022-08-26T22:19:45.647Z,5.70
2022-08-26T22:22:14.974Z,4.78
2022-08-26T22:24:44.293Z,4.43
2022-08-26T22:27:13.100Z,5.30
2022-08-26T22:29:41.203Z,5.17
2022-08-26T22:32:08.915Z,5.07
2022-08-26T22:34:36.581Z,4.85
2022-08-26T22:37:04.522Z,5.30
2022-08-26T22:39:32.835Z,5.13
2022-08-26T22:42:03.652Z,5.53
2022-08-26T22:44:32.927Z,5.65
2022-08-26T22:47:01.126Z,5.90
2022-08-26T22:49:29.037Z,5.90
2022-08-26T22:51:56.674Z,6.32
2022-08-26T22:54:24.358Z,7.20
2022-08-26T22:56:52.178Z,6.82
2022-08-26T22:59:21.430Z,18.10
2022-08-26T23:01:49.387Z,9.65
2022-08-26T23:04:17.163Z,7.95
2022-08-26T23:06:47.526Z,7.43
2022-08-26T23:09:18.224Z,7.90
2022-08-26T23:11:47.541Z,7.75
2022-08-26T23:14:15.834Z,7.88
2022-08-26T23:16:45.271Z,7.30
2022-08-26T23:19:14.923Z,6.83
2022-08-26T23:21:42.786Z,6.95
2022-08-26T23:24:11.400Z,6.68
2022-08-26T23:26:40.621Z,7.40
2022-08-26T23:29:10.555Z,7.88
2022-08-26T23:31:38.549Z,7.70
2022-08-26T23:34:25.760Z,8.02
2022-08-26T23:36:54.058Z,14.98
2022-08-26T23:39:22.513Z,15.45
2022-08-26T23:41:50.417Z,17.08
2022-08-26T23:44:18.071Z,23.37
2022-08-26T23:46:45.724Z,17.95
2022-08-26T23:49:14.942Z,15.32
2022-08-26T23:52:02.694Z,16.15
2022-08-26T23:54:31.732Z,19.48
2022-08-26T23:56:59.426Z,15.90
2022-08-26T23:59:27.284Z,16.50
